createdAt,value
2023-04-04T00:00:29.739Z,3.31
2023-04-04T00:02:57.628Z,3.72
2023-04-04T00:05:26.139Z,3.82
2023-04-04T00:07:55.325Z,3.37
2023-04-04T00:10:23.054Z,3.33
2023-04-04T00:12:50.866Z,3.01
2023-04-04T00:15:18.800Z,3.12
2023-04-04T00:17:46.617Z,3.68
2023-04-04T00:20:14.379Z,4.22
2023-04-04T00:22:42.306Z,4.03
2023-04-04T00:25:12.222Z,2.96
2023-04-04T00:27:39.929Z,2.93
2023-04-04T00:30:08.953Z,3.75
2023-04-04T00:32:36.744Z,3.46
2023-04-04T00:35:04.741Z,3.59
2023-04-04T00:37:32.753Z,3.21
2023-04-04T00:40:00.612Z,3.61
2023-04-04T00:42:29.866Z,3.31
2023-04-04T00:44:57.604Z,3.39
2023-04-04T00:47:27.910Z,3.61
2023-04-04T00:49:55.703Z,3.67
2023-04-04T00:52:23.732Z,3.22
2023-04-04T00:54:51.825Z,3.26
2023-04-04T00:57:20.377Z,2.95
2023-04-04T00:59:49.933Z,3.23
2023-04-04T01:02:17.674Z,3.50
2023-04-04T01:04:45.860Z,3.58
2023-04-04T01:07:13.728Z,3.60
2023-04-04T01:09:42.033Z,3.43
2023-04-04T01:12:10.158Z,3.39
2023-04-04T01:14:37.913Z,3.75
2023-04-04T01:17:07.130Z,3.90
2023-04-04T01:19:38.113Z,3.77
2023-04-04T01:22:07.724Z,3.22
2023-04-04T01:24:37.076Z,3.02
2023-04-04T01:27:06.531Z,3.62
2023-04-04T01:29:34.264Z,4.09
2023-04-04T01:32:06.402Z,3.87
2023-04-04T01:34:44.059Z,3.90
2023-04-04T01:37:20.593Z,3.40
2023-04-04T01:39:50.863Z,3.36
2023-04-04T01:42:21.090Z,3.18
2023-04-04T01:44:49.016Z,3.46
2023-04-04T01:47:16.991Z,3.77
2023-04-04T01:49:44.739Z,3.94
2023-04-04T01:52:12.553Z,3.84
2023-04-04T01:54:40.461Z,3.41
2023-04-04T01:57:08.567Z,3.63
2023-04-04T01:59:37.678Z,3.79
2023-04-04T02:02:05.786Z,3.76
2023-04-04T02:04:34.062Z,2.94
2023-04-04T02:07:01.929Z,2.96
2023-04-04T02:09:29.640Z,3.42
2023-04-04T02:11:57.381Z,3.90
2023-04-04T02:14:26.041Z,3.45
2023-04-04T02:16:55.180Z,3.39
2023-04-04T02:19:24.344Z,3.68
2023-04-04T02:21:52.050Z,3.53
2023-04-04T02:24:19.745Z,3.11
2023-04-04T02:26:47.515Z,3.09
2023-04-04T02:29:15.368Z,2.94
2023-04-04T02:31:43.132Z,3.13
2023-04-04T02:34:12.585Z,2.89
2023-04-04T02:36:40.311Z,3.44
2023-04-04T02:39:08.061Z,2.88
2023-04-04T02:41:35.815Z,3.15
2023-04-04T02:44:03.568Z,3.02
2023-04-04T02:46:31.320Z,2.62
2023-04-04T02:48:59.053Z,2.73
2023-04-04T02:51:28.368Z,2.97
2023-04-04T02:53:56.275Z,3.41
2023-04-04T02:56:24.435Z,3.52
2023-04-04T02:58:52.393Z,3.49
2023-04-04T03:01:20.206Z,3.65
2023-04-04T03:03:48.073Z,2.92
2023-04-04T03:06:15.897Z,2.55
2023-04-04T03:08:44.974Z,2.37
2023-04-04T03:11:13.424Z,2.49
2023-04-04T03:13:41.464Z,3.03
2023-04-04T03:16:10.111Z,3.09
2023-04-04T03:18:37.885Z,3.07
2023-04-04T03:21:05.705Z,3.33
2023-04-04T03:23:33.673Z,3.07
2023-04-04T03:26:02.848Z,3.10
2023-04-04T03:28:30.620Z,3.44
2023-04-04T03:30:58.774Z,2.85
2023-04-04T03:33:27.504Z,3.21
2023-04-04T03:35:55.523Z,3.29
2023-04-04T03:38:23.379Z,2.81
2023-04-04T03:40:51.383Z,2.73
2023-04-04T03:43:20.502Z,3.30
2023-04-04T03:45:49.292Z,2.78
2023-04-04T03:48:17.768Z,3.43
2023-04-04T03:50:45.499Z,2.99
2023-04-04T03:53:13.290Z,3.15
2023-04-04T03:55:42.243Z,2.84
2023-04-04T03:58:10.014Z,2.75
2023-04-04T04:00:39.299Z,3.25
2023-04-04T04:03:07.302Z,3.17
2023-04-04T04:05:35.129Z,3.35
2023-04-04T04:08:02.876Z,3.27
2023-04-04T04:10:30.581Z,3.48
2023-04-04T04:12:58.293Z,3.53
2023-04-04T04:15:26.124Z,3.26
2023-04-04T04:17:55.210Z,3.63
2023-04-04T04:20:22.911Z,3.46
2023-04-04T04:22:53.334Z,3.39
2023-04-04T04:25:21.857Z,3.41
2023-04-04T04:27:49.604Z,3.45
2023-04-04T04:30:17.337Z,3.47
2023-04-04T04:32:45.095Z,3.85
2023-04-04T04:35:14.202Z,3.52
2023-04-04T04:37:42.067Z,3.59
2023-04-04T04:40:10.592Z,3.35
2023-04-04T04:42:38.312Z,3.80
2023-04-04T04:45:07.190Z,3.62
2023-04-04T04:47:34.970Z,3.34
2023-04-04T04:50:02.950Z,3.72
2023-04-04T04:52:32.621Z,3.99
2023-04-04T04:55:00.330Z,3.75
2023-04-04T04:57:28.374Z,3.63
2023-04-04T04:59:56.084Z,3.44
2023-04-04T05:02:24.000Z,3.56
2023-04-04T05:04:51.838Z,3.07
2023-04-04T05:07:19.579Z,3.60
2023-04-04T05:09:48.639Z,4.15
2023-04-04T05:12:16.459Z,3.18
2023-04-04T05:14:44.615Z,3.10
2023-04-04T05:17:12.303Z,3.69
2023-04-04T05:19:40.088Z,3.45
2023-04-04T05:22:08.379Z,3.77
2023-04-04T05:24:36.113Z,4.33
2023-04-04T05:27:05.714Z,4.35
2023-04-04T05:29:33.753Z,4.33
2023-04-04T05:32:01.502Z,4.05
2023-04-04T05:34:29.218Z,4.18
2023-04-04T05:36:57.629Z,4.56
2023-04-04T05:39:25.408Z,3.75
2023-04-04T05:41:53.094Z,3.34
2023-04-04T05:44:22.383Z,3.70
2023-04-04T05:46:50.130Z,3.71
2023-04-04T05:49:18.006Z,4.44
2023-04-04T05:51:45.836Z,3.74
2023-04-04T05:54:13.623Z,3.48
2023-04-04T05:56:41.440Z,3.96
2023-04-04T05:59:09.234Z,4.35
2023-04-04T06:01:38.661Z,4.47
2023-04-04T06:04:06.540Z,4.43
2023-04-04T06:06:34.460Z,4.18
2023-04-04T06:09:02.543Z,4.27
2023-04-04T06:11:30.282Z,4.24
2023-04-04T06:13:58.029Z,4.39
2023-04-04T06:16:25.979Z,4.03
2023-04-04T06:18:55.058Z,4.20
2023-04-04T06:21:22.786Z,4.62
2023-04-04T06:23:50.554Z,4.43
2023-04-04T06:26:18.277Z,4.71
2023-04-04T06:28:49.908Z,4.81
2023-04-04T06:31:17.914Z,4.90
2023-04-04T06:33:45.711Z,4.94
2023-04-04T06:36:14.837Z,4.98
2023-04-04T06:38:42.622Z,5.41
2023-04-04T06:41:10.360Z,5.56
2023-04-04T06:43:38.079Z,5.53
2023-04-04T06:46:06.677Z,6.01
2023-04-04T06:48:34.441Z,5.86
2023-04-04T06:51:02.239Z,6.23
2023-04-04T06:53:31.354Z,5.88
2023-04-04T06:55:59.583Z,5.71
2023-04-04T06:58:27.467Z,5.97
2023-04-04T07:00:56.503Z,5.49
2023-04-04T07:03:24.749Z,6.06
2023-04-04T07:05:52.515Z,6.11
2023-04-04T07:08:20.441Z,6.47
2023-04-04T07:10:49.511Z,6.46
2023-04-04T07:13:17.229Z,6.50
2023-04-04T07:15:48.802Z,6.64
2023-04-04T07:18:16.606Z,6.69
2023-04-04T07:20:44.668Z,6.62
2023-04-04T07:23:12.374Z,6.52
2023-04-04T07:25:40.190Z,6.85
2023-04-04T07:28:17.919Z,7.52
2023-04-04T07:30:45.634Z,7.45
2023-04-04T07:33:13.430Z,7.47
2023-04-04T07:35:41.402Z,6.83
2023-04-04T07:38:09.535Z,7.85
2023-04-04T07:40:37.928Z,7.56
2023-04-04T07:43:06.726Z,7.57
2023-04-04T07:45:36.363Z,6.89
2023-04-04T07:48:04.131Z,7.93
2023-04-04T07:50:31.873Z,7.87
2023-04-04T07:52:59.622Z,7.32
2023-04-04T07:55:27.487Z,7.40
2023-04-04T07:57:55.388Z,7.29
2023-04-04T08:00:25.933Z,8.03
2023-04-04T08:02:55.752Z,7.21
2023-04-04T08:05:23.894Z,7.81
2023-04-04T08:07:51.750Z,8.32
2023-04-04T08:10:21.547Z,8.29
2023-04-04T08:12:49.565Z,8.87
2023-04-04T08:15:17.493Z,8.18
2023-04-04T08:17:45.339Z,8.45
2023-04-04T08:20:15.554Z,8.48
2023-04-04T08:22:44.010Z,8.14
2023-04-04T08:25:12.166Z,8.22
2023-04-04T08:27:44.108Z,8.03
2023-04-04T08:30:13.131Z,8.90
2023-04-04T08:32:41.119Z,8.69
2023-04-04T08:35:09.817Z,8.69
2023-04-04T08:37:39.597Z,8.78
2023-04-04T08:40:08.758Z,7.86
2023-04-04T08:42:39.685Z,8.48
2023-04-04T08:45:10.477Z,8.17
2023-04-04T08:47:39.663Z,9.04
2023-04-04T08:50:09.012Z,9.93
2023-04-04T08:52:39.408Z,9.42
2023-04-04T08:55:08.186Z,9.55
2023-04-04T08:57:36.878Z,9.08
2023-04-04T09:00:06.765Z,10.16
2023-04-04T09:02:38.492Z,9.17
2023-04-04T09:05:09.452Z,8.71
2023-04-04T09:07:39.910Z,9.63
2023-04-04T09:10:10.834Z,9.84
2023-04-04T09:12:41.026Z,9.66
2023-04-04T09:15:09.921Z,9.63
2023-04-04T09:17:38.350Z,10.26
2023-04-04T09:20:37.501Z,11.14
2023-04-04T09:23:09.060Z,10.32
2023-04-04T09:25:37.863Z,10.57
2023-04-04T09:28:06.250Z,11.17
2023-04-04T09:30:35.598Z,11.69
2023-04-04T09:33:05.600Z,11.55
2023-04-04T09:35:35.839Z,11.57
2023-04-04T09:38:03.807Z,10.30
2023-04-04T09:40:33.284Z,12.06
2023-04-04T09:43:01.996Z,11.48
2023-04-04T09:45:32.627Z,10.13
2023-04-04T09:48:01.160Z,10.92
2023-04-04T09:50:30.430Z,11.12
2023-04-04T09:53:00.453Z,11.62
2023-04-04T09:55:37.756Z,11.41
2023-04-04T09:58:13.916Z,10.80
2023-04-04T10:00:44.924Z,11.24
2023-04-04T10:03:15.050Z,10.82
2023-04-04T10:05:42.840Z,10.56
2023-04-04T10:08:17.903Z,10.81
2023-04-04T10:11:02.542Z,11.36
2023-04-04T10:13:37.005Z,11.15
2023-04-04T10:16:05.650Z,10.96
2023-04-04T10:18:35.573Z,12.00
2023-04-04T10:21:15.125Z,10.92
2023-04-04T10:23:46.449Z,10.73
2023-04-04T10:26:16.276Z,11.51
2023-04-04T10:28:44.334Z,11.02
2023-04-04T10:31:19.137Z,10.54
2023-04-04T10:33:52.747Z,11.75
2023-04-04T10:36:24.105Z,11.56
2023-04-04T10:39:02.050Z,12.14
2023-04-04T10:41:33.504Z,11.87
2023-04-04T10:44:10.520Z,12.48
2023-04-04T10:46:42.639Z,12.27
2023-04-04T10:49:12.040Z,12.50
2023-04-04T10:51:52.846Z,12.34
2023-04-04T10:54:23.578Z,13.10
2023-04-04T10:56:53.568Z,12.51
2023-04-04T10:59:21.950Z,11.64
2023-04-04T11:01:51.697Z,12.08
2023-04-04T11:04:21.841Z,11.39
2023-04-04T11:07:16.195Z,11.72
2023-04-04T11:09:51.195Z,12.47
2023-04-04T11:12:27.280Z,12.43
2023-04-04T11:15:12.662Z,12.55
2023-04-04T11:18:10.274Z,11.36
2023-04-04T11:20:46.469Z,11.90
2023-04-04T11:23:19.568Z,12.18
2023-04-04T11:25:52.127Z,11.26
2023-04-04T11:28:29.408Z,12.72
2023-04-04T11:31:24.037Z,11.88
2023-04-04T11:34:00.305Z,13.21
2023-04-04T11:36:50.689Z,13.33
2023-04-04T11:39:25.744Z,12.07
2023-04-04T11:41:58.906Z,12.35
2023-04-04T11:44:30.625Z,12.10
2023-04-04T11:47:04.171Z,13.47
2023-04-04T11:49:36.245Z,12.69
2023-04-04T11:52:06.775Z,13.57
2023-04-04T11:54:34.809Z,13.17
2023-04-04T11:57:03.635Z,11.83
2023-04-04T11:59:32.938Z,13.75
2023-04-04T12:02:03.031Z,14.22
2023-04-04T12:04:30.843Z,13.15
2023-04-04T12:06:58.610Z,14.52
2023-04-04T12:09:28.407Z,13.79
2023-04-04T12:11:58.026Z,14.63
2023-04-04T12:14:27.243Z,14.63
2023-04-04T12:16:59.512Z,12.47
2023-04-04T12:19:29.088Z,12.79
2023-04-04T12:21:58.785Z,14.64
2023-04-04T12:24:27.235Z,14.47
2023-04-04T12:26:55.070Z,13.70
2023-04-04T12:29:24.102Z,14.93
2023-04-04T12:31:53.574Z,15.53
2023-04-04T12:34:25.257Z,13.08
2023-04-04T12:36:54.175Z,12.99
2023-04-04T12:39:23.680Z,14.22
2023-04-04T12:41:55.357Z,13.61
2023-04-04T12:44:31.058Z,13.10
2023-04-04T12:47:00.294Z,12.20
2023-04-04T12:49:34.028Z,13.01
2023-04-04T12:52:04.915Z,12.97
2023-04-04T12:54:34.043Z,13.14
2023-04-04T12:57:05.589Z,11.83
2023-04-04T12:59:35.192Z,11.22
2023-04-04T13:02:03.638Z,12.03
2023-04-04T13:04:33.363Z,11.67
2023-04-04T13:07:01.961Z,12.24
2023-04-04T13:09:30.033Z,13.55
2023-04-04T13:11:58.800Z,13.34
2023-04-04T13:14:26.662Z,12.87
2023-04-04T13:17:06.064Z,13.45
2023-04-04T13:19:35.335Z,12.90
2023-04-04T13:22:04.173Z,14.00
2023-04-04T13:24:31.876Z,13.32
2023-04-04T13:26:59.652Z,12.36
2023-04-04T13:29:27.889Z,12.67
2023-04-04T13:31:55.630Z,12.66
2023-04-04T13:34:24.160Z,11.83
2023-04-04T13:36:53.706Z,12.44
2023-04-04T13:39:21.671Z,12.15
2023-04-04T13:41:50.164Z,12.27
2023-04-04T13:44:17.912Z,11.62
2023-04-04T13:46:45.650Z,12.08
2023-04-04T13:49:13.390Z,12.29
2023-04-04T13:51:41.249Z,12.48
2023-04-04T13:54:10.513Z,12.74
2023-04-04T13:56:38.215Z,12.45
2023-04-04T13:59:06.043Z,13.22
2023-04-04T14:01:34.110Z,14.49
2023-04-04T14:04:07.393Z,13.11
2023-04-04T14:06:41.014Z,13.57
2023-04-04T14:09:10.322Z,12.80
2023-04-04T14:11:38.131Z,13.40
2023-04-04T14:14:05.852Z,13.63
2023-04-04T14:16:33.649Z,13.53
2023-04-04T14:19:01.555Z,13.92
2023-04-04T14:21:29.409Z,12.32
2023-04-04T14:23:57.125Z,12.97
2023-04-04T14:26:26.204Z,12.52
2023-04-04T14:28:53.940Z,12.91
2023-04-04T14:31:21.713Z,12.97
2023-04-04T14:33:49.468Z,14.27
2023-04-04T14:36:17.177Z,14.18
2023-04-04T14:38:44.881Z,14.20
2023-04-04T14:41:13.470Z,13.12
2023-04-04T14:43:42.541Z,13.93
2023-04-04T14:46:10.232Z,13.06
2023-04-04T14:48:38.701Z,14.38
2023-04-04T14:51:06.671Z,14.58
2023-04-04T14:53:34.387Z,14.35
2023-04-04T14:56:02.120Z,15.06
2023-04-04T14:58:29.816Z,14.70
2023-04-04T15:01:01.192Z,15.34
2023-04-04T15:03:29.017Z,16.03
2023-04-04T15:05:56.720Z,15.03
2023-04-04T15:08:24.680Z,13.80
2023-04-04T15:10:52.412Z,15.01
2023-04-04T15:13:20.852Z,15.37
2023-04-04T15:15:48.671Z,13.87
2023-04-04T15:18:18.223Z,13.87
2023-04-04T15:20:46.165Z,14.95
2023-04-04T15:23:14.231Z,13.68
2023-04-04T15:25:42.022Z,13.96
2023-04-04T15:28:09.727Z,13.93
2023-04-04T15:30:37.515Z,15.05
2023-04-04T15:33:06.355Z,14.27
2023-04-04T15:35:35.761Z,13.83
2023-04-04T15:38:03.837Z,15.33
2023-04-04T15:40:31.540Z,13.08
2023-04-04T15:42:59.427Z,13.86
2023-04-04T15:45:27.430Z,15.20
2023-04-04T15:47:55.227Z,14.12
2023-04-04T15:50:22.991Z,13.01
2023-04-04T15:52:52.397Z,13.83
2023-04-04T15:55:22.012Z,14.81
2023-04-04T15:57:49.967Z,12.60
2023-04-04T16:00:17.997Z,13.52
2023-04-04T16:02:46.176Z,12.84
2023-04-04T16:05:13.962Z,12.84
2023-04-04T16:07:41.739Z,12.47
2023-04-04T16:10:11.753Z,12.60
2023-04-04T16:12:39.424Z,12.51
2023-04-04T16:15:08.712Z,13.63
2023-04-04T16:17:36.492Z,13.35
2023-04-04T16:20:04.503Z,13.11
2023-04-04T16:22:33.319Z,13.39
2023-04-04T16:25:01.236Z,13.04
2023-04-04T16:27:30.396Z,13.07
2023-04-04T16:29:58.135Z,12.44
2023-04-04T16:32:25.950Z,12.97
2023-04-04T16:34:54.128Z,12.54
2023-04-04T16:37:23.275Z,11.59
2023-04-04T16:39:52.028Z,12.02
2023-04-04T16:42:19.852Z,11.90
2023-04-04T16:44:49.330Z,11.67
2023-04-04T16:47:17.069Z,11.71
2023-04-04T16:49:44.869Z,12.74
2023-04-04T16:52:14.643Z,12.18
2023-04-04T16:54:42.684Z,12.04
2023-04-04T16:57:10.835Z,11.82
2023-04-04T16:59:38.707Z,11.14
2023-04-04T17:02:09.010Z,10.90
2023-04-04T17:04:41.030Z,10.76
2023-04-04T17:07:09.401Z,10.76
2023-04-04T17:09:37.182Z,10.94
2023-04-04T17:12:06.594Z,10.60
2023-04-04T17:14:34.496Z,10.21
2023-04-04T17:17:02.521Z,9.91
2023-04-04T17:19:34.047Z,10.45
2023-04-04T17:22:02.114Z,9.80
2023-04-04T17:24:30.084Z,10.43
2023-04-04T17:26:58.858Z,10.63
2023-04-04T17:29:27.576Z,10.19
2023-04-04T17:31:56.196Z,10.39
2023-04-04T17:34:24.728Z,10.10
2023-04-04T17:36:54.516Z,10.64
2023-04-04T17:39:22.651Z,10.24
2023-04-04T17:41:50.473Z,10.47
2023-04-04T17:44:19.340Z,9.81
2023-04-04T17:46:47.591Z,9.99
2023-04-04T17:49:19.564Z,9.74
2023-04-04T17:51:48.569Z,9.95
2023-04-04T17:54:18.079Z,9.45
2023-04-04T17:56:47.110Z,9.74
2023-04-04T17:59:15.797Z,9.27
2023-04-04T18:01:44.003Z,9.30
2023-04-04T18:04:12.130Z,8.98
2023-04-04T18:06:41.649Z,9.43
2023-04-04T18:09:10.173Z,9.47
2023-04-04T18:11:39.921Z,9.54
2023-04-04T18:14:08.384Z,9.32
2023-04-04T18:16:40.359Z,9.22
2023-04-04T18:19:09.506Z,9.47
2023-04-04T18:21:37.570Z,9.11
2023-04-04T18:24:07.394Z,9.34
2023-04-04T18:26:35.189Z,8.90
2023-04-04T18:29:04.375Z,9.01
2023-04-04T18:31:32.258Z,8.83
2023-04-04T18:34:00.860Z,8.80
2023-04-04T18:36:28.822Z,9.11
2023-04-04T18:38:56.602Z,8.84
2023-04-04T18:41:24.507Z,9.10
2023-04-04T18:43:52.260Z,9.13
2023-04-04T18:46:21.403Z,9.52
2023-04-04T18:48:49.170Z,9.33
2023-04-04T18:51:17.472Z,9.38
2023-04-04T18:53:45.336Z,9.62
2023-04-04T18:56:13.079Z,9.56
2023-04-04T18:58:41.566Z,9.57
2023-04-04T19:01:09.335Z,9.04
2023-04-04T19:03:42.833Z,9.45
2023-04-04T19:06:12.776Z,9.20
2023-04-04T19:08:41.626Z,8.74
2023-04-04T19:11:09.913Z,8.92
2023-04-04T19:13:37.916Z,8.64
2023-04-04T19:16:05.912Z,8.95
2023-04-04T19:18:33.676Z,8.81
2023-04-04T19:21:02.754Z,8.84
2023-04-04T19:23:30.708Z,8.94
2023-04-04T19:26:02.059Z,8.91
2023-04-04T19:28:30.074Z,8.68
2023-04-04T19:30:57.855Z,8.43
2023-04-04T19:33:27.303Z,8.52
2023-04-04T19:35:58.759Z,8.49
2023-04-04T19:38:30.036Z,8.43
2023-04-04T19:40:59.141Z,8.02
2023-04-04T19:43:28.068Z,8.11
2023-04-04T19:45:57.327Z,8.12
2023-04-04T19:48:40.763Z,7.84
2023-04-04T19:51:10.992Z,8.10
2023-04-04T19:53:40.824Z,7.84
2023-04-04T19:56:10.361Z,7.87
2023-04-04T19:58:38.679Z,7.67
2023-04-04T20:01:07.675Z,7.49
2023-04-04T20:03:37.730Z,7.44
2023-04-04T20:06:10.641Z,8.22
2023-04-04T20:08:43.968Z,8.24
2023-04-04T20:11:12.965Z,8.09
2023-04-04T20:13:41.769Z,8.11
2023-04-04T20:16:14.080Z,8.01
2023-04-04T20:18:43.924Z,7.47
2023-04-04T20:21:13.956Z,7.92
2023-04-04T20:23:46.387Z,7.78
2023-04-04T20:26:16.260Z,7.66
2023-04-04T20:28:47.472Z,7.62
2023-04-04T20:31:17.825Z,7.59
2023-04-04T20:33:45.878Z,7.65
2023-04-04T20:36:31.660Z,7.57
2023-04-04T20:39:01.113Z,7.43
2023-04-04T20:41:29.155Z,7.27
2023-04-04T20:43:58.403Z,6.91
2023-04-04T20:46:27.767Z,7.26
2023-04-04T20:48:56.967Z,6.86
2023-04-04T20:51:28.240Z,6.98
2023-04-04T20:53:57.746Z,7.34
2023-04-04T20:56:52.398Z,7.67
2023-04-04T20:59:43.239Z,7.25
2023-04-04T21:02:15.694Z,7.08
2023-04-04T21:04:45.712Z,7.53
2023-04-04T21:07:39.932Z,7.62
2023-04-04T21:10:25.843Z,7.91
2023-04-04T21:12:55.589Z,7.84
2023-04-04T21:15:24.596Z,7.71
2023-04-04T21:17:52.655Z,7.60
2023-04-04T21:20:53.904Z,7.52
2023-04-04T21:23:31.682Z,7.23
2023-04-04T21:26:00.763Z,6.99
2023-04-04T21:28:32.638Z,7.30
2023-04-04T21:31:00.927Z,7.34
2023-04-04T21:33:28.777Z,7.13
2023-04-04T21:35:57.152Z,7.31
2023-04-04T21:38:30.646Z,7.29
2023-04-04T21:41:00.014Z,7.42
2023-04-04T21:43:28.387Z,7.13
2023-04-04T21:45:57.535Z,7.21
2023-04-04T21:48:25.708Z,7.14
2023-04-04T21:50:54.415Z,7.21
2023-04-04T21:53:23.194Z,6.91
2023-04-04T21:55:50.963Z,6.74
2023-04-04T21:58:18.906Z,6.77
2023-04-04T22:00:46.660Z,6.73
2023-04-04T22:03:15.960Z,6.50
2023-04-04T22:05:44.242Z,6.91
2023-04-04T22:08:12.177Z,6.83
2023-04-04T22:10:45.336Z,6.33
2023-04-04T22:13:14.660Z,6.63
2023-04-04T22:15:44.043Z,6.97
2023-04-04T22:18:14.874Z,7.34
2023-04-04T22:20:44.764Z,6.65
2023-04-04T22:23:13.620Z,6.50
2023-04-04T22:25:41.360Z,6.55
2023-04-04T22:28:09.483Z,6.41
2023-04-04T22:30:39.029Z,5.87
2023-04-04T22:33:07.189Z,7.05
2023-04-04T22:35:35.531Z,7.04
2023-04-04T22:38:05.600Z,6.82
2023-04-04T22:40:34.994Z,6.89
2023-04-04T22:43:03.204Z,6.77
2023-04-04T22:45:32.114Z,6.89
2023-04-04T22:48:02.257Z,6.57
2023-04-04T22:50:30.634Z,6.69
2023-04-04T22:52:58.746Z,6.63
2023-04-04T22:55:28.981Z,6.81
2023-04-04T22:57:56.744Z,6.86
2023-04-04T23:00:24.627Z,6.76
2023-04-04T23:02:52.429Z,6.96
2023-04-04T23:05:20.395Z,6.71
2023-04-04T23:07:52.898Z,6.52
2023-04-04T23:10:21.174Z,6.60
2023-04-04T23:12:50.288Z,6.53
2023-04-04T23:15:18.154Z,6.25
2023-04-04T23:17:46.571Z,6.38
2023-04-04T23:20:14.608Z,6.38
2023-04-04T23:22:42.677Z,6.20
2023-04-04T23:25:10.894Z,6.21
2023-04-04T23:27:38.626Z,6.21
2023-04-04T23:30:09.832Z,6.29
2023-04-04T23:32:37.621Z,6.22
2023-04-04T23:35:05.968Z,6.22
2023-04-04T23:37:34.124Z,6.21
2023-04-04T23:40:01.873Z,6.43
2023-04-04T23:42:29.618Z,6.28
2023-04-04T23:44:59.453Z,6.34
2023-04-04T23:47:28.822Z,6.16
2023-04-04T23:49:56.811Z,5.97
2023-04-04T23:52:24.602Z,5.83
2023-04-04T23:54:52.346Z,5.48
2023-04-04T23:57:20.102Z,6.01
2023-04-04T23:59:47.804Z,5.83
